Main page
METAR-TAF:

METAR-TAF

Airports :

Hamadan International Airport

Hamedan, Iran

latitude: 34-52-05N, longitude: 048-33-08E, elevation: 1757 m

Current weather observation

The report was made 25 minutes ago, at 18:00 UTC
Wind 2 kt from the Northeast
Temperature 16°C
Humidity 48%
Pressure 1018 hPa
Visibility 10 km or more
Few clouds at a height of 3500 ft, Cumulonimbus.
Scattered clouds at a height of 4000 ft

METAR: OIHH 251800Z 05002KT 9999 FEW035CB SCT040 16/05 Q1018 A3007

Time: 22:55 (18:25 UTC)


TAF: missing

Weather observations and forecasts of more than 4000 airports (METAR and TAF reports).

The available stations are represented by yellow and red dots on the map.

Hover mouse over dot to see the name of the station.

Then click to see weather observations and forecasts.

To change the map : click on the green buttons with a black cross to zoom in, on the green button with a dash to zoom out, or on the green arrows for adjacent maps.


METAR-TAF: